Time;durP1;ratioP1;P1;durP2;ratioP2;P2;SDS_P1;SDS_P2;PMS_P1;PMS_P2;Temp;Humidity;BMP_temperature;BMP_pressure;BME280_temperature;BME280_humidity;BME280_pressure;Samples;Min_cycle;Max_cycle;Signal;HPM_P1;HPM_P2
2023/05/31 00:01:17;;;;;;;9.82;3.15;;;;;;;;;;5024418;28;20505;-72
2023/05/31 00:03:43;;;;;;;10.57;3.83;;;;;;;;;;5023402;28;20033;-72
2023/05/31 00:06:12;;;;;;;10.48;3.33;;;;;;;;;;5018667;28;20076;-72
2023/05/31 00:08:41;;;;;;;7.60;3.83;;;;;;;;;;5021903;28;20376;-72
2023/05/31 00:11:07;;;;;;;9.60;3.97;;;;;;;;;;5021374;28;20033;-72
2023/05/31 00:13:33;;;;;;;9.73;3.58;;;;;;;;;;5023002;28;20033;-71
2023/05/31 00:15:59;;;;;;;6.72;3.53;;;;;;;;;;5021866;28;20053;-71
2023/05/31 00:18:25;;;;;;;5.78;3.55;;;;;;;;;;5021108;28;20057;-71
2023/05/31 00:20:51;;;;;;;5.15;2.88;;;;;;;;;;5021936;28;20033;-71
2023/05/31 00:23:17;;;;;;;6.65;3.28;;;;;;;;;;5023962;28;20033;-72
2023/05/31 00:25:44;;;;;;;7.10;3.65;;;;;;;;;;5014220;28;20094;-71
2023/05/31 00:28:10;;;;;;;8.05;3.28;;;;;;;;;;5021738;28;20044;-72
2023/05/31 00:30:36;;;;;;;6.63;3.38;;;;;;;;;;5020703;28;20033;-71
2023/05/31 00:33:02;;;;;;;4.22;3.22;;;;;;;;;;5023646;28;20034;-71
2023/05/31 00:35:28;;;;;;;6.90;3.30;;;;;;;;;;5022221;28;20048;-71
2023/05/31 00:37:54;;;;;;;5.80;3.33;;;;;;;;;;5022454;28;20101;-71
2023/05/31 00:40:20;;;;;;;7.03;3.20;;;;;;;;;;5022921;28;20137;-72
2023/05/31 00:42:46;;;;;;;6.05;3.60;;;;;;;;;;5022829;28;20144;-71
2023/05/31 00:45:12;;;;;;;6.55;3.42;;;;;;;;;;5022824;28;20398;-71
2023/05/31 00:47:38;;;;;;;8.10;2.55;;;;;;;;;;5021279;28;20033;-71
2023/05/31 00:50:05;;;;;;;11.38;4.95;;;;;;;;;;5020952;28;20092;-71
2023/05/31 00:52:31;;;;;;;5.72;3.65;;;;;;;;;;5022521;28;20042;-71
2023/05/31 00:54:57;;;;;;;5.05;3.47;;;;;;;;;;5022789;28;20151;-71
2023/05/31 00:57:23;;;;;;;8.65;3.13;;;;;;;;;;5021607;28;20043;-71
2023/05/31 00:59:49;;;;;;;8.80;3.33;;;;;;;;;;5021738;28;20017;-71
2023/05/31 01:02:18;;;;;;;6.10;3.13;;;;;;;;;;5019075;28;20379;-72
2023/05/31 01:04:44;;;;;;;9.57;4.10;;;;;;;;;;5020261;28;20151;-71
2023/05/31 01:07:10;;;;;;;4.47;3.15;;;;;;;;;;5023250;28;20068;-72
2023/05/31 01:09:42;;;;;;;5.40;3.15;;;;;;;;;;5011737;28;20120;-71
2023/05/31 01:12:24;;;;;;;4.57;3.10;;;;;;;;;;5021870;28;20060;-71
2023/05/31 01:14:56;;;;;;;5.25;3.33;;;;;;;;;;5022415;28;20523;-71
2023/05/31 01:17:38;;;;;;;5.70;2.72;;;;;;;;;;5018207;28;20031;-71
2023/05/31 01:20:09;;;;;;;5.65;2.90;;;;;;;;;;5020116;28;20479;-71
2023/05/31 01:22:50;;;;;;;7.35;3.50;;;;;;;;;;5021665;28;20041;-71
2023/05/31 01:25:22;;;;;;;4.80;3.13;;;;;;;;;;5022591;28;20044;-71
2023/05/31 01:27:50;;;;;;;6.00;3.83;;;;;;;;;;5017749;28;20040;-71
2023/05/31 01:30:17;;;;;;;6.57;3.60;;;;;;;;;;5023374;28;20056;-71
2023/05/31 01:32:44;;;;;;;6.38;3.85;;;;;;;;;;5021245;28;20060;-70
2023/05/31 01:35:14;;;;;;;8.52;3.03;;;;;;;;;;5022050;28;20033;-71
2023/05/31 01:37:40;;;;;;;5.75;3.53;;;;;;;;;;5023177;28;20112;-70
2023/05/31 01:40:06;;;;;;;5.85;3.40;;;;;;;;;;5021223;28;20045;-71
2023/05/31 01:42:34;;;;;;;6.13;3.33;;;;;;;;;;5018266;28;20040;-71
2023/05/31 01:45:00;;;;;;;5.50;3.90;;;;;;;;;;5021328;28;20037;-71
2023/05/31 01:47:26;;;;;;;6.50;3.88;;;;;;;;;;5021444;28;20074;-71
2023/05/31 01:49:53;;;;;;;8.95;4.00;;;;;;;;;;5020272;28;20060;-71
2023/05/31 01:52:20;;;;;;;7.82;3.17;;;;;;;;;;5021442;28;20112;-71
2023/05/31 01:54:46;;;;;;;5.47;3.65;;;;;;;;;;5022120;28;20025;-71
2023/05/31 01:57:12;;;;;;;15.32;9.02;;;;;;;;;;5021465;28;20040;-70
2023/05/31 01:59:38;;;;;;;17.80;10.80;;;;;;;;;;5023635;28;20033;-71
2023/05/31 02:02:05;;;;;;;20.70;10.63;;;;;;;;;;5022242;28;20033;-71
2023/05/31 02:04:31;;;;;;;9.05;5.13;;;;;;;;;;5021361;28;20034;-71
2023/05/31 02:06:57;;;;;;;6.53;4.43;;;;;;;;;;5020817;28;20386;-72
2023/05/31 02:09:24;;;;;;;8.13;3.80;;;;;;;;;;5021147;28;20037;-71
2023/05/31 02:11:50;;;;;;;7.38;4.25;;;;;;;;;;5019936;28;20033;-71
2023/05/31 02:14:16;;;;;;;9.73;3.75;;;;;;;;;;5020515;28;20052;-72
2023/05/31 02:16:42;;;;;;;5.63;3.85;;;;;;;;;;5020431;28;20029;-71
2023/05/31 02:19:08;;;;;;;7.45;3.67;;;;;;;;;;5021831;28;20042;-71
2023/05/31 02:21:37;;;;;;;9.07;4.30;;;;;;;;;;5023137;28;20033;-71
2023/05/31 02:24:03;;;;;;;10.90;5.20;;;;;;;;;;5023446;28;20042;-71
2023/05/31 02:26:29;;;;;;;8.93;4.53;;;;;;;;;;5026240;28;20148;-70
2023/05/31 02:28:55;;;;;;;10.38;4.50;;;;;;;;;;5026028;28;20157;-71
2023/05/31 02:31:21;;;;;;;12.32;4.45;;;;;;;;;;5024355;28;20061;-71
2023/05/31 02:33:48;;;;;;;11.25;4.82;;;;;;;;;;5024898;28;20512;-71
2023/05/31 02:36:14;;;;;;;10.05;4.70;;;;;;;;;;5026187;28;20289;-72
2023/05/31 02:38:40;;;;;;;10.52;4.70;;;;;;;;;;5019203;28;20069;-71
2023/05/31 02:41:06;;;;;;;15.05;6.15;;;;;;;;;;5016379;28;20064;-72
2023/05/31 02:43:32;;;;;;;7.95;4.93;;;;;;;;;;5017077;28;20030;-71
2023/05/31 02:46:01;;;;;;;10.82;5.35;;;;;;;;;;5019884;28;20025;-73
2023/05/31 02:48:28;;;;;;;11.82;5.47;;;;;;;;;;5014034;28;20064;-72
2023/05/31 02:50:53;;;;;;;8.20;4.90;;;;;;;;;;5015066;28;20033;-68
2023/05/31 02:53:19;;;;;;;20.17;9.52;;;;;;;;;;5031725;28;20402;-71
2023/05/31 02:55:46;;;;;;;37.15;18.23;;;;;;;;;;5033436;28;20057;-72
2023/05/31 02:58:14;;;;;;;12.98;7.47;;;;;;;;;;5025842;28;20037;-71
2023/05/31 03:00:40;;;;;;;12.82;6.07;;;;;;;;;;5023408;28;20040;-71
2023/05/31 03:03:06;;;;;;;13.50;5.28;;;;;;;;;;5025066;28;20036;-71
2023/05/31 03:05:33;;;;;;;8.90;5.80;;;;;;;;;;5026586;28;20041;-73
2023/05/31 03:07:59;;;;;;;8.63;5.22;;;;;;;;;;5023119;28;20042;-74
2023/05/31 03:10:25;;;;;;;11.32;6.10;;;;;;;;;;5024000;28;20037;-73
2023/05/31 03:12:51;;;;;;;10.93;5.88;;;;;;;;;;5020774;28;20121;-73
2023/05/31 03:15:17;;;;;;;12.43;5.43;;;;;;;;;;5026702;28;20033;-73
2023/05/31 03:17:43;;;;;;;12.15;6.15;;;;;;;;;;5027842;28;20395;-71
2023/05/31 03:20:12;;;;;;;11.52;5.45;;;;;;;;;;5029946;28;20042;-72
2023/05/31 03:22:39;;;;;;;9.80;5.43;;;;;;;;;;5033013;28;20029;-70
2023/05/31 03:25:05;;;;;;;13.00;5.85;;;;;;;;;;5033624;28;20033;-72
2023/05/31 03:27:31;;;;;;;12.40;7.28;;;;;;;;;;5029922;28;20113;-72
2023/05/31 03:29:59;;;;;;;10.10;5.85;;;;;;;;;;5031916;28;20142;-71
2023/05/31 03:32:25;;;;;;;10.85;5.28;;;;;;;;;;5030327;28;20301;-71
2023/05/31 03:34:51;;;;;;;10.15;5.88;;;;;;;;;;5033027;28;20030;-71
2023/05/31 03:37:17;;;;;;;14.63;6.10;;;;;;;;;;5027037;28;20032;-72
2023/05/31 03:39:43;;;;;;;12.88;5.80;;;;;;;;;;5025045;28;20497;-70
2023/05/31 03:42:10;;;;;;;21.73;10.55;;;;;;;;;;5031561;28;20121;-69
2023/05/31 03:44:36;;;;;;;33.28;18.77;;;;;;;;;;5032897;28;20033;-69
2023/05/31 03:47:02;;;;;;;13.75;7.05;;;;;;;;;;5033264;28;20080;-71
2023/05/31 03:49:28;;;;;;;16.63;7.53;;;;;;;;;;5027981;28;20069;-72
2023/05/31 03:51:54;;;;;;;13.35;6.22;;;;;;;;;;5030364;28;20036;-72
2023/05/31 03:54:20;;;;;;;15.80;6.25;;;;;;;;;;5032739;28;20037;-70
2023/05/31 03:56:46;;;;;;;15.50;7.07;;;;;;;;;;5029632;28;20049;-71
2023/05/31 03:59:12;;;;;;;37.78;20.85;;;;;;;;;;5023507;28;20037;-70
2023/05/31 04:01:38;;;;;;;37.00;19.38;;;;;;;;;;5032083;28;20056;-71
2023/05/31 04:04:04;;;;;;;41.30;21.05;;;;;;;;;;5032687;28;20049;-71
2023/05/31 04:06:30;;;;;;;16.83;8.73;;;;;;;;;;5032769;28;20029;-71
2023/05/31 04:08:56;;;;;;;14.27;7.10;;;;;;;;;;5031113;28;20045;-71
2023/05/31 04:11:23;;;;;;;15.88;7.00;;;;;;;;;;5026932;28;20132;-72
2023/05/31 04:13:49;;;;;;;12.25;6.60;;;;;;;;;;5017792;28;20030;-72
2023/05/31 04:16:15;;;;;;;14.38;7.10;;;;;;;;;;5021751;28;20036;-71
2023/05/31 04:18:41;;;;;;;14.98;6.35;;;;;;;;;;5022951;28;20045;-71
2023/05/31 04:21:07;;;;;;;10.73;6.95;;;;;;;;;;5023482;28;20068;-72
2023/05/31 04:23:36;;;;;;;13.55;7.75;;;;;;;;;;5019057;28;20040;-72
2023/05/31 04:26:02;;;;;;;12.00;6.70;;;;;;;;;;5019632;28;20037;-72
2023/05/31 04:28:29;;;;;;;14.15;6.85;;;;;;;;;;5022621;28;20034;-71
2023/05/31 04:30:56;;;;;;;16.02;9.15;;;;;;;;;;5022299;28;20041;-71
2023/05/31 04:33:22;;;;;;;12.27;6.85;;;;;;;;;;5022127;28;20136;-73
2023/05/31 04:35:50;;;;;;;16.92;7.25;;;;;;;;;;5021819;28;20148;-71
2023/05/31 04:38:18;;;;;;;20.27;8.15;;;;;;;;;;5022323;28;20048;-72
2023/05/31 04:40:44;;;;;;;14.10;7.82;;;;;;;;;;5021774;28;21441;-71
2023/05/31 04:43:10;;;;;;;22.83;8.15;;;;;;;;;;5019026;28;20171;-71
2023/05/31 04:45:36;;;;;;;18.98;7.18;;;;;;;;;;5019436;28;20038;-71
2023/05/31 04:48:02;;;;;;;16.25;7.88;;;;;;;;;;5021159;28;20491;-71
2023/05/31 04:50:28;;;;;;;16.33;8.25;;;;;;;;;;5004090;28;20053;-72
2023/05/31 04:52:54;;;;;;;14.95;7.63;;;;;;;;;;5022407;28;20055;-72
2023/05/31 04:55:20;;;;;;;18.67;7.93;;;;;;;;;;5021514;28;20049;-72
2023/05/31 04:57:46;;;;;;;15.20;7.30;;;;;;;;;;5017291;28;20037;-72
2023/05/31 05:00:15;;;;;;;19.63;8.00;;;;;;;;;;5023417;28;20033;-71
2023/05/31 05:02:43;;;;;;;17.52;7.05;;;;;;;;;;5022273;28;20747;-72
2023/05/31 05:05:09;;;;;;;16.90;7.45;;;;;;;;;;5020392;28;20034;-71
2023/05/31 05:07:36;;;;;;;21.85;7.85;;;;;;;;;;5021307;28;20033;-72
2023/05/31 05:10:03;;;;;;;19.00;8.05;;;;;;;;;;5022591;28;20037;-72
2023/05/31 05:12:29;;;;;;;18.33;9.10;;;;;;;;;;5018649;28;20038;-72
2023/05/31 05:14:55;;;;;;;17.35;8.25;;;;;;;;;;5017898;28;20503;-72
2023/05/31 05:17:21;;;;;;;22.05;7.60;;;;;;;;;;5020744;28;20483;-72
2023/05/31 05:19:47;;;;;;;17.98;8.23;;;;;;;;;;5023086;28;20041;-72
2023/05/31 05:22:13;;;;;;;12.95;6.88;;;;;;;;;;5020463;28;20038;-72
2023/05/31 05:24:39;;;;;;;14.60;8.05;;;;;;;;;;5019672;28;20037;-72
2023/05/31 05:27:06;;;;;;;23.40;8.45;;;;;;;;;;5019145;28;20034;-72
2023/05/31 05:29:32;;;;;;;17.75;8.43;;;;;;;;;;5021572;28;20033;-73
2023/05/31 05:31:58;;;;;;;15.45;6.60;;;;;;;;;;5020886;28;20428;-72
2023/05/31 05:34:24;;;;;;;18.20;7.57;;;;;;;;;;5020366;28;20115;-73
2023/05/31 05:36:52;;;;;;;19.85;7.80;;;;;;;;;;5019926;28;20395;-71
2023/05/31 05:39:18;;;;;;;15.13;7.60;;;;;;;;;;5019528;28;20026;-71
2023/05/31 05:41:44;;;;;;;15.80;6.80;;;;;;;;;;5020160;28;20030;-71
2023/05/31 05:44:10;;;;;;;18.30;7.80;;;;;;;;;;5019882;28;20414;-71
2023/05/31 05:46:36;;;;;;;17.30;7.78;;;;;;;;;;5018804;28;20037;-71
2023/05/31 05:49:02;;;;;;;18.75;7.80;;;;;;;;;;5020169;28;20517;-71
2023/05/31 05:51:28;;;;;;;17.83;7.70;;;;;;;;;;5019938;28;20230;-71
2023/05/31 05:53:54;;;;;;;15.30;7.88;;;;;;;;;;5020039;28;20109;-71
2023/05/31 05:56:20;;;;;;;16.88;7.50;;;;;;;;;;5021066;28;20042;-71
2023/05/31 05:58:46;;;;;;;23.77;7.90;;;;;;;;;;5019540;28;20030;-71
2023/05/31 06:01:18;;;;;;;19.83;7.70;;;;;;;;;;5019896;28;20127;-72
2023/05/31 06:03:44;;;;;;;12.70;6.70;;;;;;;;;;5019835;28;20041;-71
2023/05/31 06:06:10;;;;;;;21.30;8.77;;;;;;;;;;5019545;28;20038;-71
2023/05/31 06:08:36;;;;;;;20.52;8.60;;;;;;;;;;5021064;28;20042;-71
2023/05/31 06:11:03;;;;;;;22.42;7.35;;;;;;;;;;5019976;28;20045;-71
2023/05/31 06:13:29;;;;;;;11.95;6.88;;;;;;;;;;5018238;28;20052;-71
2023/05/31 06:15:55;;;;;;;15.63;7.70;;;;;;;;;;5019134;28;20044;-71
2023/05/31 06:18:21;;;;;;;21.85;7.78;;;;;;;;;;5021748;28;20053;-71
2023/05/31 06:20:48;;;;;;;21.58;8.13;;;;;;;;;;5018990;28;20099;-71
2023/05/31 06:23:14;;;;;;;17.50;7.53;;;;;;;;;;5018907;28;20045;-71
2023/05/31 06:25:41;;;;;;;14.32;7.05;;;;;;;;;;5016000;28;20037;-71
2023/05/31 06:28:07;;;;;;;19.27;7.20;;;;;;;;;;5019269;28;20122;-71
2023/05/31 06:30:33;;;;;;;16.15;6.55;;;;;;;;;;5019927;28;20122;-71
2023/05/31 06:32:59;;;;;;;14.50;6.05;;;;;;;;;;5019789;28;20164;-71
2023/05/31 06:35:25;;;;;;;13.45;6.90;;;;;;;;;;5020871;28;20044;-71
2023/05/31 06:37:52;;;;;;;15.40;5.97;;;;;;;;;;5019336;28;20463;-71
2023/05/31 06:40:18;;;;;;;13.05;5.82;;;;;;;;;;5018131;28;20033;-71
2023/05/31 06:42:44;;;;;;;16.65;5.78;;;;;;;;;;5019619;28;20034;-71
2023/05/31 06:45:10;;;;;;;10.82;5.45;;;;;;;;;;5017681;28;20039;-72
2023/05/31 06:47:36;;;;;;;14.13;5.40;;;;;;;;;;5017863;28;20041;-71
2023/05/31 06:50:02;;;;;;;14.82;6.03;;;;;;;;;;5019650;28;20588;-71
2023/05/31 06:52:29;;;;;;;12.55;5.10;;;;;;;;;;5021291;28;20127;-71
2023/05/31 06:54:55;;;;;;;14.23;5.18;;;;;;;;;;5019742;28;20277;-71
2023/05/31 06:57:21;;;;;;;14.02;5.40;;;;;;;;;;5019267;28;20488;-71
2023/05/31 06:59:47;;;;;;;9.68;5.07;;;;;;;;;;5018800;28;20034;-72
2023/05/31 07:02:13;;;;;;;14.52;5.97;;;;;;;;;;5022592;28;20044;-72
2023/05/31 07:04:39;;;;;;;11.27;5.10;;;;;;;;;;5020202;28;20112;-72
2023/05/31 07:07:06;;;;;;;10.07;4.85;;;;;;;;;;5017687;28;20167;-73
2023/05/31 07:09:32;;;;;;;12.65;6.03;;;;;;;;;;5023742;28;20055;-72
2023/05/31 07:11:58;;;;;;;11.57;4.00;;;;;;;;;;5020412;28;20037;-73
2023/05/31 07:14:24;;;;;;;11.70;4.55;;;;;;;;;;5020310;28;20041;-72
2023/05/31 07:16:50;;;;;;;12.65;4.20;;;;;;;;;;5020869;28;20037;-73
2023/05/31 07:19:16;;;;;;;11.77;4.13;;;;;;;;;;5018841;28;22863;-73
2023/05/31 07:21:42;;;;;;;13.23;5.03;;;;;;;;;;5022816;28;20033;-73
2023/05/31 07:24:09;;;;;;;17.10;6.35;;;;;;;;;;5022161;28;20025;-71
2023/05/31 07:26:35;;;;;;;14.73;4.63;;;;;;;;;;5021951;28;20620;-74
2023/05/31 07:29:01;;;;;;;9.05;4.25;;;;;;;;;;5024194;28;20183;-73
2023/05/31 07:31:27;;;;;;;9.05;3.70;;;;;;;;;;5022897;28;20049;-72
2023/05/31 07:33:55;;;;;;;9.00;3.80;;;;;;;;;;5022441;28;20112;-76
2023/05/31 07:36:24;;;;;;;12.52;3.55;;;;;;;;;;5019581;28;20191;-76
2023/05/31 07:38:50;;;;;;;10.80;3.78;;;;;;;;;;5021200;28;20128;-75
2023/05/31 07:41:16;;;;;;;8.27;3.95;;;;;;;;;;5021965;28;20029;-76
2023/05/31 07:43:44;;;;;;;9.55;3.58;;;;;;;;;;5020522;28;20057;-76
2023/05/31 07:46:10;;;;;;;8.05;3.40;;;;;;;;;;5022273;28;20026;-76
2023/05/31 07:48:36;;;;;;;13.27;3.60;;;;;;;;;;5022902;28;20053;-75
2023/05/31 07:51:02;;;;;;;9.73;3.90;;;;;;;;;;5019186;28;20051;-75
2023/05/31 07:53:28;;;;;;;9.70;2.67;;;;;;;;;;5023742;28;20360;-75
2023/05/31 07:55:54;;;;;;;9.85;3.42;;;;;;;;;;5022461;28;20037;-74
2023/05/31 07:58:20;;;;;;;15.88;6.90;;;;;;;;;;5023438;28;20030;-73
2023/05/31 08:00:46;;;;;;;13.02;8.68;;;;;;;;;;5023018;28;20145;-74
2023/05/31 08:03:13;;;;;;;10.43;3.75;;;;;;;;;;5023463;28;20037;-74
2023/05/31 08:05:39;;;;;;;8.77;3.30;;;;;;;;;;5018399;28;20112;-74
2023/05/31 08:08:06;;;;;;;7.28;3.28;;;;;;;;;;5021314;28;20045;-75
2023/05/31 08:10:32;;;;;;;11.32;4.28;;;;;;;;;;5019193;28;20104;-74
2023/05/31 08:12:58;;;;;;;7.28;3.05;;;;;;;;;;5027668;28;20056;-75
2023/05/31 08:15:24;;;;;;;6.38;3.03;;;;;;;;;;5023470;28;20077;-77
2023/05/31 08:17:50;;;;;;;6.43;2.78;;;;;;;;;;5025000;28;20510;-74
2023/05/31 08:20:16;;;;;;;7.75;2.80;;;;;;;;;;5030286;28;20364;-74
2023/05/31 08:22:44;;;;;;;6.15;2.50;;;;;;;;;;5028414;28;20029;-75
2023/05/31 08:25:12;;;;;;;7.65;2.63;;;;;;;;;;5022626;28;20029;-77
2023/05/31 08:27:39;;;;;;;5.20;2.45;;;;;;;;;;5022709;28;20044;-81
2023/05/31 08:30:06;;;;;;;7.25;2.72;;;;;;;;;;5020518;28;20144;-80
2023/05/31 08:32:32;;;;;;;7.88;2.83;;;;;;;;;;5018350;28;20033;-77
2023/05/31 08:34:58;;;;;;;5.35;2.42;;;;;;;;;;5019775;28;20041;-76
2023/05/31 08:37:24;;;;;;;6.10;2.40;;;;;;;;;;5021732;28;20370;-76
2023/05/31 08:39:50;;;;;;;4.60;2.05;;;;;;;;;;5021369;28;20037;-76
2023/05/31 08:42:20;;;;;;;7.57;2.75;;;;;;;;;;5022599;28;20022;-75
2023/05/31 08:44:46;;;;;;;5.00;2.05;;;;;;;;;;5023171;28;20021;-75
2023/05/31 08:47:15;;;;;;;6.72;3.97;;;;;;;;;;5019368;28;20376;-78
2023/05/31 08:49:42;;;;;;;10.05;3.35;;;;;;;;;;5019747;28;20148;-77
2023/05/31 08:52:09;;;;;;;8.80;4.25;;;;;;;;;;5021076;28;20034;-80
2023/05/31 08:54:36;;;;;;;8.25;3.10;;;;;;;;;;5020460;28;20133;-76
2023/05/31 08:57:03;;;;;;;11.13;3.10;;;;;;;;;;5023256;28;20029;-75
2023/05/31 08:59:29;;;;;;;13.10;3.85;;;;;;;;;;5021108;28;20433;-74
2023/05/31 09:01:56;;;;;;;5.85;2.78;;;;;;;;;;5022369;28;20026;-75
2023/05/31 09:04:23;;;;;;;6.55;2.63;;;;;;;;;;5021323;28;20064;-76
2023/05/31 09:06:50;;;;;;;5.60;2.40;;;;;;;;;;5016140;28;20104;-75
2023/05/31 09:09:16;;;;;;;9.48;2.72;;;;;;;;;;5016154;28;20065;-75
2023/05/31 09:11:42;;;;;;;5.10;2.42;;;;;;;;;;5020587;28;20487;-74
2023/05/31 09:14:08;;;;;;;10.00;2.88;;;;;;;;;;5021414;28;20036;-74
2023/05/31 09:16:35;;;;;;;7.53;2.65;;;;;;;;;;5020650;28;20049;-71
2023/05/31 09:19:02;;;;;;;10.05;3.47;;;;;;;;;;5021028;28;20172;-69
2023/05/31 09:21:28;;;;;;;14.98;3.10;;;;;;;;;;5020898;28;20072;-74
2023/05/31 09:23:59;;;;;;;9.68;2.70;;;;;;;;;;5019292;28;20037;-75
2023/05/31 09:26:27;;;;;;;15.65;3.22;;;;;;;;;;5023101;28;20383;-73
2023/05/31 09:28:53;;;;;;;11.07;2.97;;;;;;;;;;5020747;28;20021;-75
2023/05/31 09:31:19;;;;;;;10.13;3.03;;;;;;;;;;5018994;28;20033;-74
2023/05/31 09:33:47;;;;;;;10.25;3.15;;;;;;;;;;5021945;28;20030;-74
2023/05/31 09:36:14;;;;;;;10.13;3.63;;;;;;;;;;5017338;28;20479;-74
2023/05/31 09:38:40;;;;;;;14.30;4.22;;;;;;;;;;5021843;28;20040;-74
2023/05/31 09:41:16;;;;;;;13.93;3.38;;;;;;;;;;5019998;28;20028;-74
2023/05/31 09:43:43;;;;;;;14.05;3.00;;;;;;;;;;5020559;28;20033;-73
2023/05/31 09:46:12;;;;;;;9.27;2.75;;;;;;;;;;5018699;28;20041;-74
2023/05/31 09:48:38;;;;;;;9.75;2.90;;;;;;;;;;5017978;28;20137;-73
2023/05/31 09:51:09;;;;;;;10.85;3.22;;;;;;;;;;5021044;28;20053;-73
2023/05/31 09:53:43;;;;;;;9.25;2.95;;;;;;;;;;5023354;28;20065;-75
2023/05/31 09:56:10;;;;;;;10.73;3.25;;;;;;;;;;5019104;28;20037;-72
2023/05/31 09:58:36;;;;;;;11.82;3.33;;;;;;;;;;5019648;28;20053;-71
2023/05/31 10:01:02;;;;;;;16.88;5.07;;;;;;;;;;5022630;28;20045;-72
2023/05/31 10:03:29;;;;;;;10.23;3.95;;;;;;;;;;5020213;28;20475;-72
2023/05/31 10:05:55;;;;;;;12.73;3.75;;;;;;;;;;5019659;28;20325;-71
2023/05/31 10:08:24;;;;;;;12.38;3.65;;;;;;;;;;5017283;28;20043;-73
2023/05/31 10:10:51;;;;;;;12.63;4.00;;;;;;;;;;5019327;28;20037;-71
2023/05/31 10:13:17;;;;;;;10.82;3.25;;;;;;;;;;5019866;28;20116;-71
2023/05/31 10:15:46;;;;;;;9.13;2.97;;;;;;;;;;5020756;28;20562;-72
2023/05/31 10:18:16;;;;;;;8.38;2.58;;;;;;;;;;5019664;28;20573;-71
2023/05/31 10:20:49;;;;;;;10.18;3.30;;;;;;;;;;5017508;28;20443;-71
2023/05/31 10:23:19;;;;;;;11.35;3.53;;;;;;;;;;5018530;28;20438;-71
2023/05/31 10:25:51;;;;;;;13.25;3.42;;;;;;;;;;5016909;28;20071;-72
2023/05/31 10:28:21;;;;;;;6.75;3.15;;;;;;;;;;5019375;28;20029;-71
2023/05/31 10:30:49;;;;;;;10.85;3.20;;;;;;;;;;5020559;28;20164;-72
2023/05/31 10:33:16;;;;;;;12.82;3.78;;;;;;;;;;5020744;28;20109;-71
2023/05/31 10:35:42;;;;;;;9.77;3.72;;;;;;;;;;5021670;28;20182;-74
2023/05/31 10:38:08;;;;;;;12.43;4.22;;;;;;;;;;5021539;28;20026;-72
2023/05/31 10:40:42;;;;;;;11.60;3.78;;;;;;;;;;5018311;28;20471;-71
2023/05/31 10:43:20;;;;;;;10.60;5.10;;;;;;;;;;5021212;28;20080;-73
2023/05/31 10:45:47;;;;;;;13.20;5.50;;;;;;;;;;5025635;28;20509;-72
2023/05/31 10:48:22;;;;;;;12.38;3.95;;;;;;;;;;5018861;28;20045;-73
2023/05/31 10:50:55;;;;;;;8.98;3.55;;;;;;;;;;5019958;28;20045;-74
2023/05/31 10:53:22;;;;;;;9.88;4.28;;;;;;;;;;5021882;28;20409;-75
2023/05/31 10:55:48;;;;;;;10.57;3.47;;;;;;;;;;5022790;28;20095;-73
2023/05/31 10:58:31;;;;;;;11.15;3.72;;;;;;;;;;5021936;28;20313;-73
2023/05/31 11:00:57;;;;;;;6.68;3.10;;;;;;;;;;5024181;28;20021;-74
2023/05/31 11:03:24;;;;;;;10.75;4.20;;;;;;;;;;5023762;28;20053;-74
2023/05/31 11:06:00;;;;;;;8.13;3.58;;;;;;;;;;5024724;28;20045;-74
2023/05/31 11:08:29;;;;;;;9.27;3.65;;;;;;;;;;5019571;28;20564;-75
2023/05/31 11:11:14;;;;;;;10.70;3.53;;;;;;;;;;5024486;28;20038;-73
2023/05/31 11:13:56;;;;;;;16.77;8.75;;;;;;;;;;5021945;28;20032;-73
2023/05/31 11:16:22;;;;;;;11.00;4.25;;;;;;;;;;5023557;28;20156;-72
2023/05/31 11:18:48;;;;;;;10.52;3.65;;;;;;;;;;5018398;28;20478;-71
2023/05/31 11:21:33;;;;;;;13.07;3.53;;;;;;;;;;5021678;28;20056;-73
2023/05/31 11:23:59;;;;;;;10.25;3.55;;;;;;;;;;5028411;28;20108;-73
2023/05/31 11:26:25;;;;;;;7.70;3.60;;;;;;;;;;5033036;28;20549;-73
2023/05/31 11:29:01;;;;;;;7.75;3.50;;;;;;;;;;5031357;28;20342;-73
2023/05/31 11:31:45;;;;;;;12.23;3.92;;;;;;;;;;5031999;28;20026;-73
2023/05/31 11:34:28;;;;;;;13.55;3.42;;;;;;;;;;5032898;28;20031;-73
2023/05/31 11:36:57;;;;;;;11.95;4.38;;;;;;;;;;5032667;28;20501;-73
2023/05/31 11:39:23;;;;;;;10.10;4.35;;;;;;;;;;5032543;28;20033;-73
2023/05/31 11:41:49;;;;;;;10.88;3.97;;;;;;;;;;5034460;28;20025;-73
2023/05/31 11:44:17;;;;;;;13.15;3.55;;;;;;;;;;5027634;28;20033;-73
2023/05/31 11:46:46;;;;;;;15.80;4.05;;;;;;;;;;5032127;28;20472;-73
2023/05/31 11:49:13;;;;;;;9.57;4.00;;;;;;;;;;5025874;28;20247;-73
2023/05/31 11:51:45;;;;;;;14.38;3.97;;;;;;;;;;5030045;28;20045;-73
2023/05/31 11:54:12;;;;;;;9.98;3.63;;;;;;;;;;5031206;28;20048;-73
2023/05/31 11:56:38;;;;;;;6.75;3.80;;;;;;;;;;5031979;28;20489;-73
2023/05/31 11:59:05;;;;;;;8.02;3.20;;;;;;;;;;5032312;28;20056;-73
2023/05/31 12:01:38;;;;;;;9.65;3.60;;;;;;;;;;5032682;28;20017;-73
2023/05/31 12:04:04;;;;;;;9.85;3.83;;;;;;;;;;5031318;28;20083;-73
2023/05/31 12:06:31;;;;;;;8.32;3.67;;;;;;;;;;5031900;28;20372;-73
2023/05/31 12:08:57;;;;;;;10.70;4.50;;;;;;;;;;5031438;28;20055;-73
2023/05/31 12:11:23;;;;;;;11.48;3.67;;;;;;;;;;5032571;28;20506;-73
2023/05/31 12:13:49;;;;;;;9.27;4.20;;;;;;;;;;5031644;28;20037;-73
2023/05/31 12:16:15;;;;;;;10.82;4.03;;;;;;;;;;5029901;28;20077;-73
2023/05/31 12:18:41;;;;;;;8.75;4.15;;;;;;;;;;5030574;28;20029;-73
2023/05/31 12:21:08;;;;;;;10.93;3.53;;;;;;;;;;5031309;28;20045;-74
2023/05/31 12:23:51;;;;;;;12.73;3.90;;;;;;;;;;5032493;28;20064;-73
2023/05/31 12:26:17;;;;;;;7.10;2.80;;;;;;;;;;5031933;28;20429;-73
2023/05/31 12:28:43;;;;;;;9.48;3.83;;;;;;;;;;5032022;28;20106;-73
2023/05/31 12:31:09;;;;;;;8.18;3.63;;;;;;;;;;5025469;28;20361;-73
2023/05/31 12:33:35;;;;;;;9.30;3.17;;;;;;;;;;5014880;28;20553;-73
2023/05/31 12:36:03;;;;;;;8.40;3.50;;;;;;;;;;5031172;28;20040;-73
2023/05/31 12:38:31;;;;;;;9.63;3.67;;;;;;;;;;5029669;28;20033;-73
2023/05/31 12:40:57;;;;;;;12.82;4.40;;;;;;;;;;5032358;28;20021;-75
2023/05/31 12:43:23;;;;;;;9.90;4.07;;;;;;;;;;5031762;28;20496;-73
2023/05/31 12:45:49;;;;;;;10.40;3.83;;;;;;;;;;5031636;28;20501;-73
2023/05/31 12:48:15;;;;;;;12.00;4.00;;;;;;;;;;5028398;28;20046;-73
2023/05/31 12:50:47;;;;;;;6.95;3.90;;;;;;;;;;5029057;28;20059;-73
2023/05/31 12:53:14;;;;;;;9.05;3.83;;;;;;;;;;5031924;28;20057;-73
2023/05/31 12:55:41;;;;;;;10.90;3.42;;;;;;;;;;5031666;28;20056;-73
2023/05/31 12:58:07;;;;;;;7.32;2.78;;;;;;;;;;5031129;28;20029;-73
2023/05/31 13:00:33;;;;;;;11.32;3.13;;;;;;;;;;5029740;28;20033;-73
2023/05/31 13:02:59;;;;;;;7.07;2.83;;;;;;;;;;5030633;28;20057;-73
2023/05/31 13:05:25;;;;;;;6.00;3.20;;;;;;;;;;5030552;28;20072;-73
2023/05/31 13:07:52;;;;;;;7.93;3.10;;;;;;;;;;5029717;28;20080;-73
2023/05/31 13:10:18;;;;;;;7.72;2.95;;;;;;;;;;5030494;28;20046;-74
2023/05/31 13:12:45;;;;;;;5.47;2.53;;;;;;;;;;5030901;28;20462;-74
2023/05/31 13:15:11;;;;;;;8.23;2.30;;;;;;;;;;5030732;28;20545;-74
2023/05/31 13:17:37;;;;;;;8.80;2.63;;;;;;;;;;5030513;28;20083;-73
2023/05/31 13:20:04;;;;;;;7.43;2.42;;;;;;;;;;5030894;28;20029;-74
2023/05/31 13:22:30;;;;;;;8.57;2.65;;;;;;;;;;5028472;28;20072;-74
2023/05/31 13:24:56;;;;;;;12.48;2.97;;;;;;;;;;5029427;28;20073;-73
2023/05/31 13:27:22;;;;;;;9.23;3.10;;;;;;;;;;5031312;28;20034;-74
2023/05/31 13:29:48;;;;;;;7.15;3.00;;;;;;;;;;5026939;28;20033;-74
2023/05/31 13:32:14;;;;;;;7.72;3.17;;;;;;;;;;5028646;28;20188;-73
2023/05/31 13:34:40;;;;;;;10.77;3.65;;;;;;;;;;5019791;28;20029;-73
2023/05/31 13:37:07;;;;;;;12.88;3.75;;;;;;;;;;5030405;28;20585;-73
2023/05/31 13:39:33;;;;;;;7.28;3.30;;;;;;;;;;5018211;28;20519;-73
2023/05/31 13:42:01;;;;;;;9.23;3.97;;;;;;;;;;5031095;28;20491;-74
2023/05/31 13:44:27;;;;;;;13.48;4.55;;;;;;;;;;5027945;28;20014;-73
2023/05/31 13:46:53;;;;;;;10.75;4.78;;;;;;;;;;5028767;28;20030;-73
2023/05/31 13:49:20;;;;;;;11.35;4.75;;;;;;;;;;5030169;28;20037;-74
2023/05/31 13:51:46;;;;;;;12.02;4.43;;;;;;;;;;5024691;28;20095;-74
2023/05/31 13:54:13;;;;;;;11.30;3.80;;;;;;;;;;5018778;28;20037;-74
2023/05/31 13:56:39;;;;;;;17.00;3.15;;;;;;;;;;5030648;28;20489;-74
2023/05/31 13:59:05;;;;;;;8.02;2.85;;;;;;;;;;5029372;28;20042;-74
2023/05/31 14:01:31;;;;;;;6.75;2.83;;;;;;;;;;5029510;28;20038;-74
2023/05/31 14:03:57;;;;;;;8.45;4.00;;;;;;;;;;5030380;28;20033;-74
2023/05/31 14:06:23;;;;;;;8.90;3.90;;;;;;;;;;5028980;28;20037;-74
2023/05/31 14:08:50;;;;;;;10.68;3.30;;;;;;;;;;5029323;28;20133;-74
2023/05/31 14:11:16;;;;;;;6.38;3.47;;;;;;;;;;5039926;28;20116;-74
2023/05/31 14:13:42;;;;;;;9.27;4.30;;;;;;;;;;5032592;28;20037;-74
2023/05/31 14:16:08;;;;;;;10.88;4.32;;;;;;;;;;5037832;28;20037;-74
2023/05/31 14:18:35;;;;;;;6.72;3.67;;;;;;;;;;5043697;28;20470;-73
2023/05/31 14:21:01;;;;;;;7.53;4.22;;;;;;;;;;5034756;28;20065;-74
2023/05/31 14:23:27;;;;;;;13.02;4.75;;;;;;;;;;5032685;28;20411;-73
2023/05/31 14:25:53;;;;;;;10.02;4.30;;;;;;;;;;5025737;28;20534;-74
2023/05/31 14:28:19;;;;;;;11.10;4.95;;;;;;;;;;5031688;28;20041;-74
2023/05/31 14:30:45;;;;;;;7.32;3.63;;;;;;;;;;5033924;28;20316;-74
2023/05/31 14:33:11;;;;;;;8.25;3.28;;;;;;;;;;5034394;28;20116;-74
2023/05/31 14:35:37;;;;;;;7.00;2.67;;;;;;;;;;5033048;28;20043;-74